Terminal Aerodrome Forecast
Issued by NWS Cleveland, OH

Home | Current Version | Previous Version | Graphics & Text | Print | Product List | Glossary Off
Versions: 1 2 3 4 5 6 7 8 9 10 11 12 13 14 15 16

608
FTUS41 KCLE 042337
TAFTOL
TAF
KTOL 042337Z 0500/0524 28008KT P6SM SCT012 OVC025
     FM050400 34006KT 5SM -SHRA BR SCT008 OVC012
     FM051000 36012G18KT P6SM SCT008 BKN012 OVC025
     FM051600 02015G25KT P6SM OVC035=

USA.gov is the U.S. government's official web portal to all federal, state and local government web resources and services.